Time;durP1;ratioP1;P1;durP2;ratioP2;P2;SDS_P1;SDS_P2;PMS_P1;PMS_P2;Temp;Humidity;BMP_temperature;BMP_pressure;BME280_temperature;BME280_humidity;BME280_pressure;Samples;Min_cycle;Max_cycle;Signal;HPM_P1;HPM_P2
2023/04/25 00:00:01;;;;;;;24.50;4.63;;;6.60;99.90;;;;;;5073159;28;20048;-68
2023/04/25 00:02:27;;;;;;;20.65;4.78;;;6.60;99.90;;;;;;5022423;27;208607;-68
2023/04/25 00:04:54;;;;;;;22.38;5.07;;;6.60;99.90;;;;;;5079153;28;20048;-69
2023/04/25 00:07:20;;;;;;;24.40;4.57;;;6.60;99.90;;;;;;5033184;28;186137;-69
2023/04/25 00:09:46;;;;;;;29.08;5.18;;;6.60;99.90;;;;;;5062258;28;20056;-68
2023/04/25 00:12:12;;;;;;;23.30;4.75;;;6.60;99.90;;;;;;5008710;28;209779;-69
2023/04/25 00:14:38;;;;;;;24.08;5.20;;;6.60;99.90;;;;;;5054636;28;20057;-69
2023/04/25 00:17:05;;;;;;;30.70;4.93;;;6.60;99.90;;;;;;5022759;28;207552;-69
2023/04/25 00:19:32;;;;;;;20.83;4.63;;;6.60;99.90;;;;;;5068240;28;20064;-70
2023/04/25 00:21:58;;;;;;;20.88;4.80;;;6.60;99.90;;;;;;4994949;28;212448;-70
2023/04/25 00:24:24;;;;;;;24.33;4.65;;;6.60;99.90;;;;;;5061188;28;20047;-69
2023/04/25 00:26:50;;;;;;;21.92;4.47;;;6.60;99.90;;;;;;5014329;28;216953;-70
2023/04/25 00:29:16;;;;;;;25.92;5.10;;;6.50;99.90;;;;;;5067874;28;20068;-70
2023/04/25 00:31:42;;;;;;;24.40;4.78;;;6.50;99.90;;;;;;5017272;28;216445;-69
2023/04/25 00:34:09;;;;;;;20.08;4.63;;;6.30;99.90;;;;;;5075300;28;20480;-69
2023/04/25 00:36:35;;;;;;;27.05;4.40;;;6.20;99.90;;;;;;5011145;28;205910;-70
2023/04/25 00:39:01;;;;;;;27.40;4.70;;;6.10;99.90;;;;;;5060205;28;20044;-70
2023/04/25 00:41:27;;;;;;;18.75;4.00;;;6.10;99.90;;;;;;5013330;28;215416;-69
2023/04/25 00:43:55;;;;;;;26.70;4.47;;;6.10;99.90;;;;;;5055453;28;20052;-69
2023/04/25 00:46:21;;;;;;;28.42;4.45;;;6.00;99.90;;;;;;5005186;28;207261;-69
2023/04/25 00:48:47;;;;;;;26.33;4.72;;;6.10;99.90;;;;;;5073688;28;20048;-69
2023/04/25 00:51:18;;;;;;;25.53;4.13;;;6.00;99.90;;;;;;4992615;28;208875;-69
2023/04/25 00:53:45;;;;;;;;;;;6.00;99.90;;;;;;5058818;28;20048;-69
2023/04/25 00:56:11;;;;;;;21.58;4.50;;;6.00;99.90;;;;;;5014035;28;215457;-69
2023/04/25 00:58:38;;;;;;;24.25;4.55;;;6.00;99.90;;;;;;5064496;28;20123;-69
2023/04/25 01:01:04;;;;;;;27.98;4.35;;;6.00;99.90;;;;;;5060531;28;207553;-69
2023/04/25 01:03:33;;;;;;;22.77;4.25;;;6.00;99.90;;;;;;5014675;28;20056;-68
2023/04/25 01:05:59;;;;;;;19.85;3.58;;;6.00;99.90;;;;;;5052157;28;20059;-68
2023/04/25 01:08:25;;;;;;;31.63;5.07;;;5.90;99.90;;;;;;5012973;28;214860;-69
2023/04/25 01:10:51;;;;;;;30.23;4.60;;;5.90;99.90;;;;;;5057371;28;20048;-69
2023/04/25 01:13:17;;;;;;;27.45;4.50;;;5.90;99.90;;;;;;4995768;28;221113;-68
2023/04/25 01:15:43;;;;;;;19.45;3.67;;;5.80;99.90;;;;;;5053315;28;20048;-69
2023/04/25 01:18:10;;;;;;;26.98;4.28;;;5.70;99.90;;;;;;4997522;28;207161;-68
2023/04/25 01:20:38;;;;;;;28.50;5.00;;;5.70;99.90;;;;;;5055851;28;20056;-68
2023/04/25 01:23:04;;;;;;;20.52;4.00;;;5.70;99.90;;;;;;4998033;28;230866;-69
2023/04/25 01:25:31;;;;;;;19.92;3.45;;;5.70;99.90;;;;;;5050788;28;20055;-68
2023/04/25 01:27:58;;;;;;;23.80;3.85;;;5.70;99.90;;;;;;4982798;28;210050;-68
2023/04/25 01:30:27;;;;;;;20.52;3.95;;;5.70;99.90;;;;;;5049829;28;20057;-67
2023/04/25 01:32:56;;;;;;;22.42;3.90;;;5.70;99.90;;;;;;4987326;28;208118;-68
2023/04/25 01:35:23;;;;;;;21.55;3.67;;;5.70;99.90;;;;;;5052062;28;20059;-68
2023/04/25 01:37:50;;;;;;;24.95;4.65;;;5.70;99.90;;;;;;4996323;28;208205;-68
2023/04/25 01:40:18;;;;;;;24.30;4.03;;;5.70;99.90;;;;;;5052588;28;20067;-68
2023/04/25 01:42:45;;;;;;;30.88;4.72;;;5.70;99.90;;;;;;4986703;28;208244;-68
2023/04/25 01:45:12;;;;;;;19.52;4.10;;;5.70;99.90;;;;;;5057062;28;20123;-68
2023/04/25 01:47:43;;;;;;;19.50;3.70;;;5.70;99.90;;;;;;4985162;28;207854;-68
2023/04/25 01:50:09;;;;;;;;;;;5.70;99.90;;;;;;5055013;28;20062;-68
2023/04/25 01:52:35;;;;;;;26.63;4.28;;;5.70;99.90;;;;;;4983195;28;160403;-67
2023/04/25 01:55:02;;;;;;;24.27;4.10;;;5.70;99.90;;;;;;5055251;28;20067;-68
2023/04/25 01:57:28;;;;;;;27.10;4.13;;;5.70;99.90;;;;;;4980643;28;231498;-67
2023/04/25 02:00:01;;;;;;;20.13;3.72;;;5.80;99.90;;;;;;5067195;28;20047;-67
2023/04/25 02:02:27;;;;;;;22.00;3.83;;;5.70;99.90;;;;;;5004239;28;207586;-68
2023/04/25 02:04:54;;;;;;;23.45;4.15;;;5.70;99.90;;;;;;5071264;28;20052;-69
2023/04/25 02:07:20;;;;;;;24.83;4.25;;;5.70;99.90;;;;;;5021822;28;206605;-67
2023/04/25 02:09:46;;;;;;;21.67;3.60;;;5.80;99.90;;;;;;5082255;28;20510;-68
2023/04/25 02:12:13;;;;;;;23.08;4.00;;;5.70;99.90;;;;;;5013460;28;206493;-68
2023/04/25 02:14:39;;;;;;;23.92;4.15;;;5.80;99.90;;;;;;5070968;28;20082;-68
2023/04/25 02:17:05;;;;;;;20.50;3.92;;;5.80;99.90;;;;;;5019823;28;211502;-69
2023/04/25 02:19:31;;;;;;;21.30;3.95;;;5.80;99.90;;;;;;5084805;28;20048;-68
2023/04/25 02:21:58;;;;;;;21.85;3.67;;;5.80;99.90;;;;;;5018152;28;207737;-68
2023/04/25 02:24:24;;;;;;;21.73;3.42;;;5.70;99.90;;;;;;5068621;28;20063;-71
2023/04/25 02:26:50;;;;;;;23.52;3.88;;;5.70;99.90;;;;;;5016409;28;211405;-68
2023/04/25 02:29:16;;;;;;;25.60;4.38;;;5.80;99.90;;;;;;5064849;28;20124;-69
2023/04/25 02:31:42;;;;;;;22.15;3.70;;;5.80;99.90;;;;;;5022334;28;216104;-69
2023/04/25 02:34:08;;;;;;;22.35;3.72;;;5.70;99.90;;;;;;5079894;28;20059;-69
2023/04/25 02:36:35;;;;;;;25.73;4.28;;;5.80;99.90;;;;;;5019877;28;206504;-68
2023/04/25 02:39:02;;;;;;;24.13;3.53;;;5.70;99.90;;;;;;5079789;28;20123;-68
2023/04/25 02:41:29;;;;;;;25.23;4.38;;;5.70;99.90;;;;;;5026601;28;207047;-67
2023/04/25 02:43:55;;;;;;;18.70;3.58;;;5.70;99.90;;;;;;5076757;28;20438;-68
2023/04/25 02:46:21;;;;;;;20.85;3.90;;;5.70;99.90;;;;;;5016937;28;219615;-69
2023/04/25 02:48:47;;;;;;;36.08;5.78;;;5.70;99.90;;;;;;5062754;28;20062;-68
2023/04/25 02:51:13;;;;;;;17.37;3.20;;;5.70;99.90;;;;;;5021059;28;207936;-68
2023/04/25 02:53:39;;;;;;;28.15;4.35;;;5.70;99.90;;;;;;5079288;28;20052;-69
2023/04/25 02:56:06;;;;;;;16.95;3.25;;;5.70;99.90;;;;;;5048683;28;214242;-68
2023/04/25 02:58:32;;;;;;;24.60;3.05;;;5.70;99.90;;;;;;5057089;27;206731;-69
2023/04/25 03:00:58;;;;;;;20.13;3.20;;;5.70;99.90;;;;;;5076511;28;20043;-69
2023/04/25 03:03:24;;;;;;;28.60;3.70;;;5.70;99.90;;;;;;5021251;28;208683;-68
2023/04/25 03:05:51;;;;;;;23.90;3.33;;;5.70;99.90;;;;;;5075742;28;20048;-69
2023/04/25 03:08:18;;;;;;;18.52;3.25;;;5.70;99.90;;;;;;4990991;28;214354;-68
2023/04/25 03:10:45;;;;;;;22.45;3.80;;;5.70;99.90;;;;;;5079204;28;20064;-68
2023/04/25 03:13:11;;;;;;;20.50;2.95;;;5.70;99.90;;;;;;5006169;28;209891;-68
2023/04/25 03:15:39;;;;;;;20.40;3.58;;;5.70;99.90;;;;;;5080782;28;20518;-68
2023/04/25 03:18:05;;;;;;;16.25;2.83;;;5.70;99.90;;;;;;5020936;28;210558;-69
2023/04/25 03:20:31;;;;;;;19.58;3.92;;;5.80;99.90;;;;;;5063146;28;20056;-70
2023/04/25 03:22:57;;;;;;;19.60;2.97;;;5.70;99.90;;;;;;5006943;28;207728;-69
2023/04/25 03:25:23;;;;;;;20.48;3.65;;;5.70;99.90;;;;;;5081327;28;20056;-69
2023/04/25 03:27:49;;;;;;;21.02;3.05;;;5.60;99.90;;;;;;5024244;28;217067;-68
2023/04/25 03:30:15;;;;;;;18.23;2.80;;;5.50;99.90;;;;;;5072167;28;20581;-69
2023/04/25 03:32:41;;;;;;;15.38;2.10;;;5.40;99.90;;;;;;4991048;28;209579;-69
2023/04/25 03:35:08;;;;;;;15.32;2.55;;;5.40;99.90;;;;;;5055909;28;20060;-69
2023/04/25 03:37:34;;;;;;;13.55;2.20;;;5.30;99.90;;;;;;5009006;28;479086;-70
2023/04/25 03:40:00;;;;;;;13.55;2.45;;;5.30;99.90;;;;;;5081169;28;20048;-70
2023/04/25 03:42:26;;;;;;;13.45;2.60;;;5.30;99.90;;;;;;5011904;28;206029;-70
2023/04/25 03:44:52;;;;;;;14.18;2.50;;;5.30;99.90;;;;;;5077740;28;20059;-70
2023/04/25 03:47:18;;;;;;;15.55;2.55;;;5.20;99.90;;;;;;5005233;28;210281;-69
2023/04/25 03:49:45;;;;;;;9.98;1.77;;;5.10;99.90;;;;;;5066043;28;20494;-70
2023/04/25 03:52:11;;;;;;;18.48;2.08;;;5.20;99.90;;;;;;5013820;28;191154;-70
2023/04/25 03:54:37;;;;;;;12.48;2.08;;;5.10;99.90;;;;;;5059434;28;20056;-69
2023/04/25 03:57:03;;;;;;;14.40;2.13;;;5.10;99.90;;;;;;5008098;28;206617;-69
2023/04/25 03:59:29;;;;;;;15.18;2.30;;;5.10;99.90;;;;;;5085425;28;20059;-68
2023/04/25 04:01:55;;;;;;;14.57;2.05;;;5.10;99.90;;;;;;5009413;28;211324;-69
2023/04/25 04:04:21;;;;;;;14.18;2.38;;;5.10;99.90;;;;;;5056642;28;20063;-69
2023/04/25 04:06:47;;;;;;;11.98;2.40;;;5.10;99.90;;;;;;5000185;28;205723;-69
2023/04/25 04:09:13;;;;;;;14.45;2.20;;;5.10;99.90;;;;;;5061823;28;20494;-69
2023/04/25 04:11:40;;;;;;;14.55;2.22;;;5.00;99.90;;;;;;5001221;28;209211;-68
2023/04/25 04:14:07;;;;;;;14.00;2.00;;;5.00;99.90;;;;;;5048888;28;20052;-69
2023/04/25 04:16:33;;;;;;;16.15;2.60;;;5.00;99.90;;;;;;5026122;28;208001;-69
2023/04/25 04:18:59;;;;;;;16.30;2.50;;;4.90;99.90;;;;;;5082050;28;20059;-69
2023/04/25 04:21:27;;;;;;;12.93;2.40;;;4.90;99.90;;;;;;5022771;28;206620;-69
2023/04/25 04:23:54;;;;;;;15.32;2.20;;;4.90;99.90;;;;;;5091140;28;20048;-69
2023/04/25 04:26:23;;;;;;;13.00;2.05;;;4.90;99.90;;;;;;5022758;28;206429;-69
2023/04/25 04:28:54;;;;;;;13.32;2.15;;;4.80;99.90;;;;;;5073610;28;20071;-69
2023/04/25 04:31:21;;;;;;;12.05;1.85;;;4.80;99.90;;;;;;5005802;28;207328;-69
2023/04/25 04:33:47;;;;;;;11.05;2.25;;;4.90;99.90;;;;;;5081354;28;20442;-68
2023/04/25 04:36:13;;;;;;;14.38;1.98;;;4.90;99.90;;;;;;5014818;28;208606;-68
2023/04/25 04:38:40;;;;;;;20.83;2.75;;;4.90;99.90;;;;;;5064806;28;20056;-68
2023/04/25 04:41:07;;;;;;;11.13;2.40;;;4.90;99.90;;;;;;5040310;28;207125;-69
2023/04/25 04:43:33;;;;;;;16.70;2.28;;;5.00;99.90;;;;;;5031791;28;20048;-69
2023/04/25 04:46:03;;;;;;;16.95;2.20;;;5.00;99.90;;;;;;5076782;28;20055;-68
2023/04/25 04:48:33;;;;;;;12.38;2.10;;;5.00;99.90;;;;;;4988370;28;201331;-69
2023/04/25 04:51:00;;;;;;;10.43;2.15;;;5.00;99.90;;;;;;5079068;28;20071;-68
2023/04/25 04:53:27;;;;;;;12.73;1.80;;;5.00;99.90;;;;;;4990031;28;207267;-70
2023/04/25 04:55:53;;;;;;;13.25;2.35;;;5.00;99.90;;;;;;5072420;28;20059;-69
2023/04/25 04:58:19;;;;;;;11.13;1.65;;;5.00;99.90;;;;;;4987685;28;212898;-69
2023/04/25 05:00:46;;;;;;;11.68;1.80;;;4.90;99.90;;;;;;5056591;28;20574;-69
2023/04/25 05:03:12;;;;;;;16.40;2.50;;;5.00;99.90;;;;;;4988634;28;207363;-69
2023/04/25 05:05:39;;;;;;;11.68;2.20;;;4.90;99.90;;;;;;5071321;28;20419;-69
2023/04/25 05:08:06;;;;;;;11.23;2.05;;;4.90;99.90;;;;;;5030260;28;207296;-70
2023/04/25 05:10:32;;;;;;;12.65;2.72;;;5.00;99.90;;;;;;5070327;28;20075;-69
2023/04/25 05:12:58;;;;;;;13.88;2.10;;;5.00;99.90;;;;;;5003551;28;207693;-69
2023/04/25 05:15:24;;;;;;;12.57;2.28;;;5.20;99.90;;;;;;5049261;28;20064;-69
2023/04/25 05:17:50;;;;;;;13.98;2.65;;;5.50;99.90;;;;;;4996595;28;212486;-69
2023/04/25 05:20:18;;;;;;;10.57;1.90;;;5.80;99.90;;;;;;5070403;28;20060;-69
2023/04/25 05:22:45;;;;;;;13.95;2.15;;;6.00;99.90;;;;;;5001497;28;214750;-69
2023/04/25 05:25:11;;;;;;;21.35;2.67;;;6.20;99.90;;;;;;5073748;28;20047;-70
2023/04/25 05:27:37;;;;;;;15.10;2.20;;;6.30;99.90;;;;;;5015583;28;208800;-69
2023/04/25 05:30:04;;;;;;;14.77;2.10;;;6.20;99.90;;;;;;5056087;28;20048;-69
2023/04/25 05:32:31;;;;;;;13.35;2.28;;;6.20;99.90;;;;;;4995029;28;208238;-69
2023/04/25 05:34:57;;;;;;;14.27;2.30;;;6.20;99.90;;;;;;5057109;28;20052;-70
2023/04/25 05:37:23;;;;;;;21.10;2.60;;;6.10;99.90;;;;;;4992218;28;408375;-71
2023/04/25 05:39:49;;;;;;;17.95;2.35;;;6.00;99.90;;;;;;5055643;28;20056;-72
2023/04/25 05:42:15;;;;;;;16.85;2.72;;;6.00;99.90;;;;;;4992362;28;207198;-71
2023/04/25 05:44:41;;;;;;;13.25;2.45;;;5.90;99.90;;;;;;5052126;28;20132;-71
2023/04/25 05:47:07;;;;;;;15.15;2.63;;;5.90;99.90;;;;;;4993509;28;207247;-71
2023/04/25 05:49:34;;;;;;;21.42;2.88;;;6.10;99.90;;;;;;5045185;28;20279;-70
2023/04/25 05:52:00;;;;;;;15.63;2.65;;;6.40;99.90;;;;;;5005745;28;207222;-69
2023/04/25 05:54:26;;;;;;;15.52;2.47;;;6.80;99.90;;;;;;5030275;28;20124;-70
2023/04/25 05:56:53;;;;;;;17.13;3.13;;;7.00;99.90;;;;;;4997723;28;210727;-70
2023/04/25 05:59:19;;;;;;;15.63;2.45;;;7.00;99.90;;;;;;5056029;28;20053;-70
2023/04/25 06:01:46;;;;;;;13.60;2.17;;;7.30;99.90;;;;;;4988588;28;212199;-70
2023/04/25 06:04:12;;;;;;;14.40;2.22;;;7.50;99.90;;;;;;5050289;28;20056;-70
2023/04/25 06:06:38;;;;;;;18.00;2.67;;;7.80;99.90;;;;;;4986171;28;209374;-71
2023/04/25 06:09:05;;;;;;;18.50;2.88;;;8.00;99.90;;;;;;5038845;28;20507;-68
2023/04/25 06:11:31;;;;;;;16.20;2.60;;;8.10;99.90;;;;;;5000855;28;209235;-69
2023/04/25 06:13:57;;;;;;;17.75;2.63;;;8.20;99.90;;;;;;5059064;28;20048;-68
2023/04/25 06:16:25;;;;;;;16.05;2.40;;;8.30;99.90;;;;;;4997985;28;207014;-69
2023/04/25 06:18:51;;;;;;;15.98;2.58;;;8.30;99.90;;;;;;5036572;28;20053;-69
2023/04/25 06:21:17;;;;;;;17.85;2.42;;;8.40;99.90;;;;;;5003615;28;212830;-69
2023/04/25 06:23:43;;;;;;;13.52;2.70;;;8.40;99.90;;;;;;5046877;28;20053;-69
2023/04/25 06:26:10;;;;;;;18.25;2.90;;;8.70;99.90;;;;;;5000656;28;217313;-67
2023/04/25 06:28:36;;;;;;;16.00;2.53;;;8.90;99.90;;;;;;5048076;28;20056;-68
2023/04/25 06:31:02;;;;;;;15.23;2.17;;;8.90;99.90;;;;;;5066788;28;209911;-68
2023/04/25 06:33:28;;;;;;;14.60;2.30;;;8.70;99.90;;;;;;5039327;28;156731;-69
2023/04/25 06:35:54;;;;;;;12.15;2.08;;;8.30;99.90;;;;;;5076662;28;20056;-69
2023/04/25 06:38:20;;;;;;;16.73;1.95;;;7.70;99.90;;;;;;5024833;28;212527;-68
2023/04/25 06:40:47;;;;;;;13.18;1.83;;;7.50;99.90;;;;;;5078592;28;20063;-68
2023/04/25 06:43:13;;;;;;;14.43;2.03;;;7.20;99.90;;;;;;5009956;28;214019;-68
2023/04/25 06:45:39;;;;;;;15.30;2.00;;;7.00;99.90;;;;;;5075338;28;20070;-69
2023/04/25 06:48:05;;;;;;;11.77;2.00;;;6.90;99.90;;;;;;5023116;28;217186;-69
2023/04/25 06:50:31;;;;;;;14.63;1.90;;;6.90;99.90;;;;;;5060623;28;20059;-68
2023/04/25 06:52:57;;;;;;;14.60;2.10;;;7.10;99.90;;;;;;4994952;28;210471;-69
2023/04/25 06:55:23;;;;;;;13.55;2.13;;;7.70;99.90;;;;;;5057487;28;20116;-69
2023/04/25 06:57:49;;;;;;;14.65;2.20;;;8.20;99.90;;;;;;4982657;28;207495;-69
2023/04/25 07:00:16;;;;;;;15.65;1.90;;;8.50;99.90;;;;;;5061592;28;20454;-68
2023/04/25 07:02:43;;;;;;;12.38;1.92;;;8.70;99.90;;;;;;5002787;28;212241;-69
2023/04/25 07:05:09;;;;;;;13.20;1.63;;;8.50;99.90;;;;;;5064618;28;20598;-68
2023/04/25 07:07:35;;;;;;;13.85;1.70;;;8.20;99.90;;;;;;5006863;28;208465;-68
2023/04/25 07:10:01;;;;;;;10.07;1.60;;;8.20;99.90;;;;;;5078700;28;20052;-69
2023/04/25 07:12:28;;;;;;;12.65;2.13;;;8.20;99.90;;;;;;5004302;28;207903;-69
2023/04/25 07:14:54;;;;;;;10.38;1.55;;;8.00;99.90;;;;;;5072875;28;20510;-68
2023/04/25 07:17:20;;;;;;;11.32;1.77;;;7.80;99.90;;;;;;5011908;28;219907;-69
2023/04/25 07:19:46;;;;;;;13.30;2.17;;;7.70;99.90;;;;;;5073660;28;20052;-69
2023/04/25 07:22:12;;;;;;;10.77;1.52;;;8.00;99.90;;;;;;5001817;28;214366;-69
2023/04/25 07:24:38;;;;;;;14.43;2.05;;;8.10;99.90;;;;;;5070051;28;20060;-69
2023/04/25 07:27:04;;;;;;;10.50;1.50;;;7.90;99.90;;;;;;5017037;28;211066;-68
2023/04/25 07:29:31;;;;;;;9.48;1.65;;;8.00;99.90;;;;;;5075144;28;20057;-69
2023/04/25 07:31:57;;;;;;;14.80;1.98;;;7.90;99.90;;;;;;5016041;28;207328;-69
2023/04/25 07:34:23;;;;;;;14.63;2.03;;;8.50;99.90;;;;;;5075958;28;20546;-69
2023/04/25 07:36:50;;;;;;;11.52;1.92;;;8.90;99.90;;;;;;5021116;28;210932;-68
2023/04/25 07:39:16;;;;;;;13.40;1.60;;;8.90;99.90;;;;;;5070054;28;20040;-70
2023/04/25 07:41:42;;;;;;;11.25;1.65;;;9.10;99.90;;;;;;5009632;28;209319;-69
2023/04/25 07:44:08;;;;;;;14.20;2.03;;;9.40;99.90;;;;;;5076665;28;20413;-68
2023/04/25 07:46:34;;;;;;;14.35;2.10;;;9.80;99.90;;;;;;5017873;28;208987;-69
2023/04/25 07:49:00;;;;;;;15.18;1.80;;;9.80;99.90;;;;;;5066628;28;20049;-70
2023/04/25 07:51:27;;;;;;;12.82;1.88;;;9.10;99.90;;;;;;5026252;28;206606;-68
2023/04/25 07:53:53;;;;;;;9.70;1.63;;;8.40;99.90;;;;;;5081918;28;20049;-69
2023/04/25 07:56:19;;;;;;;10.20;2.10;;;8.30;99.90;;;;;;4989693;28;220136;-69
2023/04/25 07:58:45;;;;;;;10.98;1.90;;;8.00;99.90;;;;;;5080086;28;20520;-70
2023/04/25 08:01:11;;;;;;;10.25;1.85;;;7.70;99.90;;;;;;5015701;28;213665;-70
2023/04/25 08:03:38;;;;;;;13.15;2.03;;;7.50;99.90;;;;;;5053799;28;20056;-68
2023/04/25 08:06:04;;;;;;;13.15;1.80;;;7.40;99.90;;;;;;5062757;28;207507;-69
2023/04/25 08:08:30;;;;;;;15.48;2.17;;;7.40;99.90;;;;;;5020021;28;209002;-68
2023/04/25 08:10:56;;;;;;;12.98;1.88;;;7.50;99.90;;;;;;5079592;28;20461;-69
2023/04/25 08:13:22;;;;;;;12.10;1.80;;;7.60;99.90;;;;;;5009225;28;209596;-68
2023/04/25 08:15:48;;;;;;;10.45;1.73;;;7.70;99.90;;;;;;5077514;28;20049;-69
2023/04/25 08:18:14;;;;;;;14.45;1.52;;;8.00;99.90;;;;;;5006920;28;227136;-70
2023/04/25 08:20:40;;;;;;;9.88;1.48;;;8.30;99.90;;;;;;5081425;28;20059;-69
2023/04/25 08:23:07;;;;;;;8.50;1.30;;;8.70;99.90;;;;;;4996628;28;207168;-69
2023/04/25 08:25:33;;;;;;;7.78;1.50;;;8.90;99.90;;;;;;5078341;28;20062;-69
2023/04/25 08:28:02;;;;;;;11.43;1.75;;;9.00;99.90;;;;;;5034242;28;201852;-70
2023/04/25 08:30:29;;;;;;;13.60;2.25;;;9.10;99.90;;;;;;5076937;28;20055;-68
2023/04/25 08:32:55;;;;;;;7.00;1.10;;;10.10;99.90;;;;;;5026900;28;208967;-70
2023/04/25 08:35:21;;;;;;;11.95;1.65;;;10.20;98.50;;;;;;5074088;28;20058;-69
2023/04/25 08:37:49;;;;;;;10.15;1.75;;;10.20;99.30;;;;;;4981339;28;213460;-69
2023/04/25 08:40:15;;;;;;;13.15;1.92;;;10.50;98.00;;;;;;5059252;28;20503;-68
2023/04/25 08:42:42;;;;;;;13.23;1.73;;;10.60;98.60;;;;;;5005054;28;207656;-69
2023/04/25 08:45:09;;;;;;;12.68;1.88;;;10.80;99.90;;;;;;5059901;28;20059;-69
2023/04/25 08:47:39;;;;;;;8.80;1.52;;;11.80;99.90;;;;;;5001552;28;212281;-70
2023/04/25 08:50:06;;;;;;;6.82;0.95;;;11.30;99.20;;;;;;5061085;28;20044;-70
2023/04/25 08:52:44;;;;;;;7.05;1.13;;;9.80;99.90;;;;;;4995751;28;221454;-69
2023/04/25 08:55:12;;;;;;;8.60;1.10;;;8.80;99.90;;;;;;5057007;28;20529;-69
2023/04/25 08:57:41;;;;;;;7.03;1.35;;;8.80;99.90;;;;;;4982991;28;214962;-69
2023/04/25 09:00:08;;;;;;;11.38;1.50;;;10.10;99.90;;;;;;5054896;28;20056;-68
2023/04/25 09:02:34;;;;;;;8.20;1.10;;;10.60;99.90;;;;;;5003316;28;215113;-68
2023/04/25 09:05:02;;;;;;;8.82;1.30;;;9.40;99.90;;;;;;5053239;28;20052;-70
2023/04/25 09:07:28;;;;;;;8.95;1.23;;;8.80;99.90;;;;;;5006572;28;206015;-70
2023/04/25 09:09:54;;;;;;;7.45;1.27;;;8.20;99.90;;;;;;5057160;28;20045;-70
2023/04/25 09:12:20;;;;;;;6.30;1.10;;;8.30;99.90;;;;;;4991843;28;208363;-70
2023/04/25 09:15:07;;;;;;;5.20;0.80;;;8.50;99.90;;;;;;5049370;28;20067;-70
2023/04/25 09:17:33;;;;;;;10.73;1.40;;;8.90;99.90;;;;;;4990678;28;192743;-70
2023/04/25 09:20:17;;;;;;;7.50;1.08;;;9.00;99.90;;;;;;5054348;28;20045;-69
2023/04/25 09:22:45;;;;;;;8.02;1.00;;;9.50;99.90;;;;;;5016386;28;220937;-70
2023/04/25 09:25:14;;;;;;;8.77;1.30;;;10.10;99.90;;;;;;5077622;28;20052;-69
2023/04/25 09:27:54;;;;;;;11.10;1.33;;;10.30;99.90;;;;;;5018390;28;207061;-69
2023/04/25 09:30:33;;;;;;;8.73;1.40;;;10.40;99.90;;;;;;5075945;28;20052;-68
2023/04/25 09:33:10;;;;;;;8.40;1.30;;;10.50;99.90;;;;;;5008877;28;224544;-69
2023/04/25 09:35:44;;;;;;;8.65;1.48;;;11.90;99.90;;;;;;5075750;28;20047;-69
2023/04/25 09:38:12;;;;;;;12.55;1.50;;;12.10;98.70;;;;;;5010086;28;210292;-69
2023/04/25 09:40:43;;;;;;;9.13;1.30;;;11.40;98.90;;;;;;5085039;28;20051;-69
2023/04/25 09:43:22;;;;;;;12.48;1.83;;;11.90;99.70;;;;;;5007665;28;208145;-69
2023/04/25 09:45:51;;;;;;;10.27;1.55;;;12.40;99.90;;;;;;5077033;28;20052;-70
2023/04/25 09:48:19;;;;;;;10.40;1.48;;;13.00;99.40;;;;;;5001653;28;211702;-69
2023/04/25 09:51:04;;;;;;;11.35;1.77;;;12.60;99.10;;;;;;5078653;28;20044;-69
2023/04/25 09:53:31;;;;;;;9.90;1.73;;;11.30;98.40;;;;;;5033810;28;216189;-69
2023/04/25 09:56:00;;;;;;;10.98;1.63;;;9.40;99.90;;;;;;5079343;28;20059;-69
2023/04/25 09:58:30;;;;;;;9.80;1.70;;;8.30;99.90;;;;;;5010460;28;207838;-69
2023/04/25 10:01:07;;;;;;;9.73;1.80;;;8.10;99.90;;;;;;5074359;28;20041;-68
2023/04/25 10:03:35;;;;;;;12.75;1.80;;;7.90;99.90;;;;;;5017866;28;37135;-71
2023/04/25 10:06:09;;;;;;;14.10;2.10;;;7.70;99.90;;;;;;5071600;28;209794;-67
2023/04/25 10:08:37;;;;;;;14.73;2.13;;;8.00;99.90;;;;;;5034545;28;20060;-71
2023/04/25 10:11:07;;;;;;;13.38;2.00;;;9.40;99.90;;;;;;5062331;28;207519;-70
2023/04/25 10:13:35;;;;;;;12.40;2.08;;;10.30;99.90;;;;;;5000174;28;206970;-71
2023/04/25 10:16:03;;;;;;;11.48;2.22;;;11.50;99.90;;;;;;5073329;28;20044;-70
2023/04/25 10:18:30;;;;;;;14.70;2.03;;;12.60;99.90;;;;;;4985991;28;210034;-68
2023/04/25 10:21:03;;;;;;;14.77;2.35;;;13.00;99.90;;;;;;5078142;28;20036;-68
2023/04/25 10:23:31;;;;;;;13.30;2.20;;;13.30;99.90;;;;;;5008047;28;210066;-69
2023/04/25 10:25:58;;;;;;;13.45;2.28;;;13.60;99.90;;;;;;5079411;28;20044;-71
2023/04/25 10:28:24;;;;;;;15.02;2.25;;;14.20;99.90;;;;;;5017125;28;206319;-68
2023/04/25 10:31:04;;;;;;;9.55;1.67;;;14.50;99.90;;;;;;5080778;28;20494;-69
2023/04/25 10:33:38;;;;;;;13.75;2.00;;;14.40;97.90;;;;;;5004040;28;33207;-69
2023/04/25 10:36:17;;;;;;;11.63;1.90;;;14.70;99.00;;;;;;5057964;28;205987;-68
2023/04/25 10:38:44;;;;;;;11.30;1.65;;;13.80;96.90;;;;;;5047200;28;20056;-68
2023/04/25 10:41:12;;;;;;;9.95;1.70;;;12.70;96.90;;;;;;5025611;28;208675;-68
2023/04/25 10:43:42;;;;;;;12.50;1.70;;;11.90;95.60;;;;;;5066282;28;20055;-68
2023/04/25 10:46:26;;;;;;;7.25;1.40;;;12.20;96.30;;;;;;5033728;28;208108;-68
2023/04/25 10:48:54;;;;;;;9.82;1.35;;;12.30;95.10;;;;;;5036607;28;20060;-68
2023/04/25 10:51:24;;;;;;;14.00;1.60;;;10.70;97.30;;;;;;4998677;28;217133;-67
2023/04/25 10:54:04;;;;;;;11.30;1.63;;;9.60;99.70;;;;;;5038229;28;20059;-68
2023/04/25 10:56:31;;;;;;;11.02;1.50;;;8.90;99.90;;;;;;5001324;28;207792;-67
2023/04/25 10:59:18;;;;;;;9.02;1.20;;;8.60;99.90;;;;;;5053060;28;20071;-67
2023/04/25 11:01:47;;;;;;;10.27;1.52;;;8.60;99.90;;;;;;5022404;28;206638;-66
2023/04/25 11:04:24;;;;;;;10.23;1.60;;;8.90;99.90;;;;;;5075695;28;20526;-67
2023/04/25 11:07:05;;;;;;;9.98;1.42;;;9.60;99.80;;;;;;5005061;28;207814;-67
2023/04/25 11:09:37;;;;;;;11.85;1.75;;;10.30;99.90;;;;;;5050198;28;20067;-68
2023/04/25 11:12:04;;;;;;;10.48;1.30;;;10.70;99.70;;;;;;5015076;28;206510;-68
2023/04/25 11:14:31;;;;;;;7.50;1.50;;;9.30;99.50;;;;;;5067644;28;20536;-68
2023/04/25 11:16:58;;;;;;;7.28;1.00;;;8.30;99.90;;;;;;5020701;28;206179;-67
2023/04/25 11:19:26;;;;;;;7.35;1.35;;;8.00;99.90;;;;;;5077381;28;20056;-67
2023/04/25 11:21:57;;;;;;;10.23;1.35;;;7.80;99.90;;;;;;5020771;28;208039;-65
2023/04/25 11:24:34;;;;;;;6.72;1.02;;;7.80;99.90;;;;;;5063322;28;20421;-67
2023/04/25 11:27:05;;;;;;;13.00;2.13;;;7.50;99.90;;;;;;5020066;28;205801;-66
2023/04/25 11:29:33;;;;;;;9.80;1.33;;;7.60;99.90;;;;;;5088055;28;20051;-67
2023/04/25 11:32:01;;;;;;;11.55;2.00;;;8.00;99.90;;;;;;5030788;28;208882;-66
2023/04/25 11:34:30;;;;;;;11.63;1.85;;;8.30;99.90;;;;;;5091901;28;20039;-67
2023/04/25 11:36:57;;;;;;;15.02;2.17;;;9.40;99.90;;;;;;5022818;28;210047;-67
2023/04/25 11:39:28;;;;;;;11.23;1.88;;;10.00;99.90;;;;;;5076606;28;20474;-69
2023/04/25 11:41:55;;;;;;;11.95;1.88;;;10.60;99.90;;;;;;5030503;28;207652;-70
2023/04/25 11:44:21;;;;;;;9.82;1.50;;;11.50;99.90;;;;;;5081187;28;20074;-68
2023/04/25 11:46:48;;;;;;;13.63;2.05;;;11.40;99.30;;;;;;5035206;28;209568;-66
2023/04/25 11:49:14;;;;;;;14.57;2.10;;;11.00;99.90;;;;;;5078218;28;20110;-67
2023/04/25 11:51:44;;;;;;;12.93;1.77;;;11.20;99.90;;;;;;5017117;28;209100;-67
2023/04/25 11:54:11;;;;;;;13.73;2.00;;;11.20;99.50;;;;;;5068969;28;20495;-66
2023/04/25 11:56:41;;;;;;;12.55;1.60;;;10.50;99.50;;;;;;4998308;28;209411;-68
2023/04/25 11:59:07;;;;;;;11.90;1.55;;;9.90;99.90;;;;;;5074149;28;20431;-68
2023/04/25 12:01:35;;;;;;;8.82;1.50;;;9.10;99.90;;;;;;5019994;28;209084;-67
2023/04/25 12:04:32;;;;;;;15.25;1.73;;;8.80;99.90;;;;;;5092980;28;20057;-67
2023/04/25 12:07:00;;;;;;;10.38;1.63;;;8.70;99.90;;;;;;5016697;28;208001;-67
2023/04/25 12:09:31;;;;;;;10.95;1.92;;;9.40;99.70;;;;;;5074011;28;20056;-67
2023/04/25 12:11:59;;;;;;;;;;;10.40;99.20;;;;;;5025921;28;207658;-67
2023/04/25 12:14:26;;;;;;;10.25;1.58;;;10.50;98.50;;;;;;5053110;28;19916;-68
2023/04/25 12:16:57;;;;;;;11.95;1.58;;;10.20;97.50;;;;;;5016989;28;211865;-68
2023/04/25 12:19:23;;;;;;;12.95;1.75;;;10.40;97.40;;;;;;5073458;28;20051;-67
2023/04/25 12:21:50;;;;;;;9.93;1.50;;;10.40;98.20;;;;;;5019416;28;206958;-67
2023/04/25 12:24:18;;;;;;;8.77;1.30;;;9.60;98.90;;;;;;5082718;28;20070;-67
2023/04/25 12:26:47;;;;;;;7.13;1.25;;;8.70;98.80;;;;;;5011798;28;214790;-65
2023/04/25 12:29:24;;;;;;;7.95;1.50;;;8.60;99.40;;;;;;5083637;28;20051;-67
2023/04/25 12:31:52;;;;;;;9.65;1.35;;;8.50;99.70;;;;;;5014713;28;213347;-67
2023/04/25 12:34:22;;;;;;;9.63;1.50;;;8.60;99.50;;;;;;5074343;28;20564;-67
2023/04/25 12:36:49;;;;;;;10.00;1.38;;;8.90;99.90;;;;;;5030530;28;28271;-67
2023/04/25 12:39:23;;;;;;;10.75;1.70;;;9.10;98.60;;;;;;5064226;28;20426;-67
2023/04/25 12:41:50;;;;;;;8.70;1.50;;;9.60;99.00;;;;;;5012350;28;207459;-67
2023/04/25 12:44:16;;;;;;;10.48;1.60;;;10.30;99.10;;;;;;5069557;28;20058;-67